createdAt,value
2022-12-04T12:23:44.308Z,45.88
2022-12-04T12:26:18.889Z,46.00
2022-12-04T12:29:00.935Z,46.06
2022-12-04T12:32:06.527Z,45.57
2022-12-04T12:38:46.106Z,35.23
2022-12-04T12:41:20.226Z,43.54
2022-12-04T12:43:53.899Z,48.05
2022-12-04T12:46:33.193Z,53.56
2022-12-04T12:49:03.725Z,56.36
2022-12-04T12:51:38.607Z,58.64
2022-12-04T12:54:14.882Z,59.60
2022-12-04T12:56:49.404Z,60.60
2022-12-04T12:59:25.721Z,62.25
2022-12-04T13:02:00.885Z,64.32
2022-12-04T13:04:37.400Z,68.80
2022-12-04T13:07:32.047Z,70.01
2022-12-04T13:10:12.065Z,69.65
2022-12-04T13:12:50.461Z,70.23
2022-12-04T13:15:20.231Z,70.68
2022-12-04T13:17:49.725Z,71.56
2022-12-04T13:20:26.499Z,72.92
2022-12-04T13:23:41.054Z,73.00
2022-12-04T13:26:20.852Z,72.83
2022-12-04T13:29:03.920Z,74.17
2022-12-04T13:31:53.434Z,74.02
2022-12-04T13:34:28.970Z,74.64
2022-12-04T13:37:18.122Z,75.08
2022-12-04T13:40:15.448Z,75.20
2022-12-04T13:42:44.389Z,75.16
2022-12-04T13:45:22.722Z,75.72
2022-12-04T13:47:59.804Z,75.77
2022-12-04T13:50:27.216Z,76.17
2022-12-04T13:52:55.113Z,76.29
2022-12-04T13:55:33.239Z,76.11
2022-12-04T13:58:25.909Z,76.55
2022-12-04T14:01:02.186Z,75.23
2022-12-04T14:03:44.464Z,75.47
2022-12-04T14:06:26.374Z,74.97
2022-12-04T14:08:57.510Z,76.25
2022-12-04T14:11:24.810Z,76.37
2022-12-04T14:13:56.852Z,75.86
2022-12-04T14:16:29.083Z,76.09
2022-12-04T14:19:01.032Z,76.45
2022-12-04T14:21:42.452Z,76.11
2022-12-04T14:24:28.273Z,76.54
2022-12-04T14:27:11.161Z,76.09
2022-12-04T14:29:48.514Z,76.02
2022-12-04T14:32:18.104Z,75.89
2022-12-04T14:34:45.164Z,75.62
2022-12-04T14:37:21.316Z,75.72
2022-12-04T14:39:48.799Z,76.27
2022-12-04T14:42:27.319Z,76.24
2022-12-04T14:44:56.438Z,77.15
2022-12-04T14:47:42.239Z,77.32
2022-12-04T14:50:14.928Z,76.78
2022-12-04T14:52:59.023Z,77.14
2022-12-04T14:56:07.255Z,76.87
2022-12-04T14:58:34.683Z,77.52
2022-12-04T15:01:07.538Z,77.82
2022-12-04T15:03:36.947Z,77.87
2022-12-04T15:06:10.919Z,77.56
2022-12-04T15:08:52.115Z,77.09
2022-12-04T15:11:39.491Z,77.52
2022-12-04T15:14:13.845Z,78.45
2022-12-04T15:16:40.894Z,78.21
2022-12-04T15:19:18.617Z,78.72
2022-12-04T15:21:45.523Z,77.97
2022-12-04T15:24:23.526Z,76.92
2022-12-04T15:26:51.698Z,77.15
2022-12-04T15:29:23.936Z,77.15
2022-12-04T15:31:56.661Z,76.46
2022-12-04T15:34:37.780Z,76.41
2022-12-04T15:37:07.960Z,76.63
2022-12-04T15:39:35.821Z,77.03
2022-12-04T15:42:14.816Z,77.24
2022-12-04T15:45:08.822Z,76.86
2022-12-04T15:47:47.990Z,77.22
2022-12-04T15:50:17.804Z,77.65
2022-12-04T15:53:07.894Z,77.92
2022-12-04T15:55:48.913Z,77.67
2022-12-04T15:58:22.486Z,77.43
2022-12-04T16:00:55.573Z,77.54
2022-12-04T16:03:25.907Z,78.23
2022-12-04T16:06:06.695Z,78.70
2022-12-04T16:08:39.035Z,78.18
2022-12-04T16:11:17.985Z,78.91
2022-12-04T16:13:44.934Z,79.05
2022-12-04T16:16:16.997Z,78.91
2022-12-04T16:18:44.103Z,79.26
2022-12-04T16:21:17.917Z,78.05
2022-12-04T16:23:45.380Z,77.45
2022-12-04T16:26:16.878Z,77.14
2022-12-04T16:28:44.200Z,77.71
2022-12-04T16:31:11.892Z,78.37
2022-12-04T16:33:39.007Z,78.61
2022-12-04T16:36:06.396Z,78.20
2022-12-04T16:38:33.160Z,78.50
2022-12-04T16:41:00.027Z,78.55
2022-12-04T16:43:26.712Z,78.85
2022-12-04T16:45:54.662Z,78.20
2022-12-04T16:48:21.279Z,78.27
2022-12-04T16:50:48.498Z,78.31
2022-12-04T16:53:17.653Z,78.15
2022-12-04T16:55:46.741Z,78.11
2022-12-04T16:58:13.753Z,77.86
2022-12-04T17:00:43.918Z,78.60
2022-12-04T17:03:28.728Z,78.07
2022-12-04T17:05:55.898Z,78.28
2022-12-04T17:08:23.084Z,78.45
2022-12-04T17:10:50.464Z,78.77
2022-12-04T17:13:18.424Z,78.94
2022-12-04T17:15:45.237Z,78.85
2022-12-04T17:18:16.330Z,78.90
2022-12-04T17:20:47.226Z,79.30
2022-12-04T17:23:14.003Z,78.77
2022-12-04T17:25:40.682Z,79.03
2022-12-04T17:28:07.804Z,79.36
2022-12-04T17:30:36.480Z,78.72
2022-12-04T17:33:04.450Z,79.21
2022-12-04T17:35:31.543Z,79.81
2022-12-04T17:38:03.919Z,79.44
2022-12-04T17:40:32.723Z,79.21
2022-12-04T17:42:59.552Z,78.71
2022-12-04T17:45:26.264Z,79.25
2022-12-04T17:47:52.888Z,78.87
2022-12-04T17:50:19.522Z,78.79
2022-12-04T17:52:46.251Z,77.83
2022-12-04T17:55:12.988Z,77.85
2022-12-04T17:57:39.638Z,78.43
2022-12-04T18:00:09.117Z,79.25
2022-12-04T18:02:39.055Z,78.28
2022-12-04T18:07:28.641Z,78.07
2022-12-04T18:09:55.779Z,78.33
2022-12-04T18:12:22.675Z,78.63
2022-12-04T18:14:49.526Z,78.34
2022-12-04T18:17:17.852Z,77.99
2022-12-04T18:19:54.207Z,77.98
2022-12-04T18:22:20.991Z,78.17
2022-12-04T18:24:49.339Z,78.96
2022-12-04T18:27:16.455Z,79.42
2022-12-04T18:29:43.570Z,80.61
2022-12-04T18:32:10.275Z,80.04
2022-12-04T18:34:37.074Z,79.37
2022-12-04T18:37:04.211Z,79.81
2022-12-04T18:39:31.680Z,79.84
2022-12-04T18:41:58.363Z,79.41
2022-12-04T18:44:26.113Z,79.39
2022-12-04T18:46:53.560Z,79.49
2022-12-04T18:49:20.806Z,79.64
2022-12-04T18:51:49.925Z,79.46
2022-12-04T18:54:23.091Z,79.65
2022-12-04T18:56:50.845Z,80.26
2022-12-04T18:59:24.166Z,79.85
2022-12-04T19:01:51.147Z,79.58
2022-12-04T19:04:19.581Z,78.81
2022-12-04T19:06:51.537Z,78.59
2022-12-04T19:09:35.493Z,78.87
2022-12-04T19:12:09.158Z,79.07
2022-12-04T19:14:36.211Z,79.41
2022-12-04T19:17:02.955Z,79.72
2022-12-04T19:19:31.716Z,79.85
2022-12-04T19:21:59.320Z,79.41
2022-12-04T19:24:26.026Z,79.30
2022-12-04T19:26:54.409Z,79.28
2022-12-04T19:29:21.316Z,79.52
2022-12-04T19:31:48.120Z,79.42
2022-12-04T19:34:15.255Z,79.62
2022-12-04T19:36:42.980Z,80.06
2022-12-04T19:39:10.384Z,80.49
2022-12-04T19:41:38.630Z,80.12
2022-12-04T19:44:26.402Z,79.96
2022-12-04T19:46:52.706Z,79.74
2022-12-04T19:49:19.579Z,79.70
2022-12-04T19:51:47.832Z,79.25
2022-12-04T19:54:16.000Z,79.22
2022-12-04T19:56:45.929Z,78.80
2022-12-04T19:59:13.241Z,78.90
2022-12-04T20:01:40.218Z,78.15
2022-12-04T20:04:08.247Z,78.17
2022-12-04T20:06:37.851Z,78.36
2022-12-04T20:09:07.626Z,78.57
2022-12-04T20:11:36.060Z,78.82
2022-12-04T20:14:03.772Z,77.96
2022-12-04T20:16:33.623Z,78.42
2022-12-04T20:19:02.913Z,78.50
2022-12-04T20:21:31.906Z,78.77
2022-12-04T20:24:02.531Z,79.72
2022-12-04T20:26:35.693Z,79.52
2022-12-04T20:29:02.491Z,78.79
2022-12-04T20:31:35.172Z,79.55
2022-12-04T20:34:05.221Z,80.66
2022-12-04T20:36:36.698Z,80.61
2022-12-04T20:39:04.708Z,80.13
2022-12-04T20:41:33.396Z,79.35
2022-12-04T20:44:02.744Z,79.15
2022-12-04T20:46:35.148Z,79.26
2022-12-04T20:49:05.799Z,78.93
2022-12-04T20:51:35.410Z,78.72
2022-12-04T20:54:03.331Z,78.63
2022-12-04T20:56:34.272Z,78.56
2022-12-04T20:59:03.891Z,78.42
2022-12-04T21:01:31.071Z,78.92
2022-12-04T21:04:02.055Z,79.74
2022-12-04T21:06:35.000Z,79.45
2022-12-04T21:09:08.066Z,79.51
2022-12-04T21:11:38.024Z,80.46
2022-12-04T21:14:28.808Z,80.51
2022-12-04T21:16:55.927Z,79.99
2022-12-04T21:19:23.349Z,80.10
2022-12-04T21:21:50.598Z,79.80
2022-12-04T21:24:20.205Z,79.56
2022-12-04T21:26:53.775Z,79.64
2022-12-04T21:29:21.495Z,79.48
2022-12-04T21:31:48.491Z,80.20
2022-12-04T21:34:17.102Z,80.26
2022-12-04T21:36:44.131Z,80.77
2022-12-04T21:39:13.327Z,80.65
2022-12-04T21:41:58.638Z,80.13
2022-12-04T21:44:25.272Z,80.01
2022-12-04T21:46:51.995Z,79.41
2022-12-04T21:49:19.857Z,79.83
2022-12-04T21:52:01.802Z,79.37
2022-12-04T21:54:29.622Z,79.70
2022-12-04T21:56:57.397Z,80.12
2022-12-04T21:59:25.413Z,80.35
2022-12-04T22:01:53.347Z,79.90
2022-12-04T22:04:22.774Z,80.12
2022-12-04T22:06:49.844Z,80.52
2022-12-04T22:09:17.403Z,80.55
2022-12-04T22:11:44.295Z,80.74
2022-12-04T22:14:11.906Z,80.44
2022-12-04T22:16:42.722Z,80.64
2022-12-04T22:19:10.789Z,80.76
2022-12-04T22:21:37.452Z,80.65
2022-12-04T22:24:04.809Z,80.83
2022-12-04T22:26:32.277Z,80.74
2022-12-04T22:28:59.372Z,80.70
2022-12-04T22:31:28.238Z,80.68
2022-12-04T22:33:56.726Z,80.56
2022-12-04T22:36:29.053Z,80.69
2022-12-04T22:39:09.288Z,80.56
2022-12-04T22:41:36.347Z,80.82
2022-12-04T22:44:03.306Z,80.83
2022-12-04T22:46:30.045Z,80.76
2022-12-04T22:48:58.660Z,80.88
2022-12-04T22:51:25.396Z,80.70
2022-12-04T22:53:54.078Z,80.38
2022-12-04T22:56:26.703Z,79.88
2022-12-04T22:58:54.271Z,80.61
2022-12-04T23:01:26.572Z,80.32
2022-12-04T23:03:53.678Z,80.43
2022-12-04T23:06:28.514Z,80.43
2022-12-04T23:09:01.139Z,80.33
2022-12-04T23:11:28.396Z,80.40
2022-12-04T23:14:00.140Z,80.13
2022-12-04T23:16:28.875Z,79.90
2022-12-04T23:18:56.072Z,79.97
2022-12-04T23:21:23.445Z,80.45
2022-12-04T23:23:52.452Z,80.36
2022-12-04T23:26:31.493Z,80.40
2022-12-04T23:28:58.656Z,80.13
2022-12-04T23:31:25.873Z,80.07
2022-12-04T23:33:52.565Z,79.90
2022-12-04T23:36:19.467Z,79.81
2022-12-04T23:38:46.401Z,79.27
2022-12-04T23:41:19.099Z,79.40
2022-12-04T23:43:46.612Z,79.94
2022-12-04T23:46:16.098Z,79.98
2022-12-04T23:48:44.289Z,79.21
2022-12-04T23:51:13.524Z,79.71
2022-12-04T23:53:40.293Z,80.02
2022-12-04T23:56:11.278Z,80.52
2022-12-04T23:58:38.468Z,80.23
